Time;durP1;ratioP1;P1;durP2;ratioP2;P2;SDS_P1;SDS_P2;PMS_P1;PMS_P2;Temp;Humidity;BMP_temperature;BMP_pressure;BME280_temperature;BME280_humidity;BME280_pressure;Samples;Min_cycle;Max_cycle;Signal;HPM_P1;HPM_P2
2022/04/13 00:00:55;;;;;;;13.50;7.23;;;;;;;15.37;65.67;100212.88;5077309;28;20217;-66
2022/04/13 00:03:23;;;;;;;12.87;6.77;;;;;;;14.82;67.68;100210.63;5079001;28;20211;-64
2022/04/13 00:05:51;;;;;;;11.33;6.43;;;;;;;14.97;66.78;100208.78;5080275;28;20297;-64
2022/04/13 00:08:19;;;;;;;11.13;6.70;;;;;;;14.94;66.39;100207.34;5079558;28;20210;-66
2022/04/13 00:10:49;;;;;;;15.00;6.90;;;;;;;15.05;66.63;100206.03;5077459;28;20619;-66
2022/04/13 00:13:19;;;;;;;9.73;6.97;;;;;;;15.13;67.19;100210.47;5077170;28;20207;-64
2022/04/13 00:15:48;;;;;;;10.63;6.80;;;;;;;15.21;65.59;100213.88;5077998;28;20316;-65
2022/04/13 00:18:16;;;;;;;13.33;6.33;;;;;;;15.27;65.15;100213.16;5080351;28;20207;-65
2022/04/13 00:20:45;;;;;;;10.43;6.80;;;;;;;15.20;65.73;100209.56;5077325;28;20673;-64
2022/04/13 00:23:12;;;;;;;11.20;6.63;;;;;;;14.62;68.00;100215.63;5078323;28;20248;-65
2022/04/13 00:25:41;;;;;;;12.30;6.47;;;;;;;15.03;66.37;100216.91;5075964;28;20210;-64
2022/04/13 00:28:10;;;;;;;10.60;6.67;;;;;;;15.12;65.85;100215.00;5078596;28;20213;-65
2022/04/13 00:30:38;;;;;;;12.00;6.50;;;;;;;15.12;65.73;100220.34;5075119;28;20210;-68
2022/04/13 00:33:08;;;;;;;8.10;5.70;;;;;;;15.01;66.13;100220.78;5080742;28;20230;-66
2022/04/13 00:38:19;;;;;;;9.17;6.17;;;;;;;15.03;67.03;100222.25;5078014;28;20349;-65
2022/04/13 00:40:47;;;;;;;12.77;6.43;;;;;;;15.10;66.32;100221.53;5074975;28;20215;-65
2022/04/13 00:43:14;;;;;;;11.63;6.63;;;;;;;15.05;66.34;100224.72;5080004;28;21688;-66
2022/04/13 00:45:45;;;;;;;13.50;6.77;;;;;;;14.96;66.27;100225.81;5079007;28;20199;-66
2022/04/13 00:51:07;;;;;;;12.43;6.33;;;;;;;14.80;67.03;100225.97;5075937;28;20294;-67
2022/04/13 00:53:36;;;;;;;10.23;5.73;;;;;;;14.61;68.25;100227.31;5075929;28;20208;-65
2022/04/13 00:56:05;;;;;;;13.03;6.67;;;;;;;14.71;67.82;100229.72;5072935;28;20222;-65
2022/04/13 00:58:33;;;;;;;9.80;6.50;;;;;;;14.77;68.00;100234.38;5073491;28;20197;-64
2022/04/13 01:01:03;;;;;;;10.53;6.43;;;;;;;14.63;68.19;100231.47;5078186;28;20240;-64
2022/04/13 01:03:36;;;;;;;11.13;5.53;;;;;;;14.64;67.16;100226.97;5076206;28;20271;-66
2022/04/13 01:06:05;;;;;;;17.83;6.63;;;;;;;14.52;68.06;100234.56;5075567;28;20637;-66
2022/04/13 01:08:34;;;;;;;7.23;4.60;;;;;;;14.76;66.21;100235.38;5080543;28;20225;-66
2022/04/13 01:11:02;;;;;;;9.23;4.80;;;;;;;14.80;65.92;100228.66;5076856;28;20219;-64
2022/04/13 01:13:30;;;;;;;8.53;4.90;;;;;;;14.80;66.41;100242.00;5076874;28;20208;-65
2022/04/13 01:15:58;;;;;;;8.03;5.03;;;;;;;14.73;66.54;100241.91;5076777;28;20648;-65
2022/04/13 01:18:32;;;;;;;8.80;5.20;;;;;;;14.82;66.36;100234.63;5078028;28;20310;-66
2022/04/13 01:21:01;;;;;;;7.73;4.97;;;;;;;14.81;66.29;100227.63;5075175;28;20203;-64
2022/04/13 01:23:39;;;;;;;9.37;4.67;;;;;;;14.82;66.17;100231.97;5082227;28;20299;-66
2022/04/13 01:26:10;;;;;;;8.60;5.33;;;;;;;14.83;66.02;100230.97;5077132;28;20209;-65
2022/04/13 01:28:38;;;;;;;8.67;4.53;;;;;;;14.86;65.21;100243.97;5078147;28;20562;-65
2022/04/13 01:31:06;;;;;;;9.30;5.17;;;;;;;14.91;64.88;100249.56;5080163;28;20233;-65
2022/04/13 01:33:36;;;;;;;7.17;4.97;;;;;;;14.93;64.48;100250.22;5077582;28;20235;-65
2022/04/13 01:36:05;;;;;;;7.27;4.93;;;;;;;14.86;64.90;100251.97;5077313;28;20214;-66
2022/04/13 01:38:35;;;;;;;9.20;5.70;;;;;;;14.88;65.04;100257.94;5076831;28;20668;-65
2022/04/13 01:41:06;;;;;;;7.93;5.00;;;;;;;14.89;65.04;100257.75;5078725;28;20678;-65
2022/04/13 01:43:40;;;;;;;8.17;5.40;;;;;;;14.88;64.63;100252.59;5075382;28;20719;-65
2022/04/13 01:46:10;;;;;;;8.33;5.37;;;;;;;14.87;64.90;100258.94;5075239;28;20549;-65
2022/04/13 01:48:39;;;;;;;13.03;5.87;;;;;;;14.85;64.92;100258.31;5077351;28;20260;-65
2022/04/13 01:51:06;;;;;;;7.73;5.63;;;;;;;14.32;67.00;100260.88;5073645;28;20202;-65
2022/04/13 01:53:36;;;;;;;7.93;5.20;;;;;;;14.53;66.54;100268.22;5076975;28;20214;-66
2022/04/13 01:56:04;;;;;;;10.97;5.50;;;;;;;14.58;66.75;100260.53;5075248;28;20591;-65
2022/04/13 01:58:31;;;;;;;8.97;5.83;;;;;;;14.75;65.44;100268.41;5071972;28;20241;-66
2022/04/13 02:00:59;;;;;;;9.40;5.70;;;;;;;14.82;65.14;100272.00;5076076;28;20297;-65
2022/04/13 02:03:28;;;;;;;10.40;5.97;;;;;;;14.62;66.49;100261.81;5078128;28;20626;-66
2022/04/13 02:05:56;;;;;;;10.30;4.93;;;;;;;13.98;69.02;100240.94;5076296;28;20206;-66
2022/04/13 02:08:24;;;;;;;11.77;5.63;;;;;;;14.40;67.45;100246.69;5076233;28;20657;-66
2022/04/13 02:10:53;;;;;;;10.43;5.00;;;;;;;14.63;66.15;100246.66;5077012;28;20234;-65
2022/04/13 02:13:21;;;;;;;9.53;5.77;;;;;;;14.55;66.55;100247.53;5077925;28;20214;-65
2022/04/13 02:15:49;;;;;;;11.80;5.23;;;;;;;14.71;65.37;100261.75;5076834;28;20506;-65
2022/04/13 02:18:17;;;;;;;9.97;4.60;;;;;;;14.78;64.88;100254.69;5076299;28;20778;-66
2022/04/13 02:20:54;;;;;;;8.70;4.90;;;;;;;14.71;65.39;100259.09;5077999;28;20206;-64
2022/04/13 02:23:22;;;;;;;8.33;5.17;;;;;;;14.61;65.90;100270.84;5078719;28;20198;-65
2022/04/13 02:25:49;;;;;;;8.77;5.03;;;;;;;14.47;66.27;100271.63;5074602;28;20726;-65
2022/04/13 02:28:18;;;;;;;11.07;5.47;;;;;;;14.51;66.04;100278.25;5074148;28;20216;-65
2022/04/13 02:30:46;;;;;;;9.73;4.90;;;;;;;14.71;66.04;100280.44;5073408;28;20300;-65
2022/04/13 02:33:14;;;;;;;9.63;5.73;;;;;;;14.73;65.52;100278.44;5070388;28;20213;-65
2022/04/13 02:35:47;;;;;;;14.03;5.90;;;;;;;14.64;66.98;100297.19;5070346;28;20207;-65
2022/04/13 02:38:16;;;;;;;11.23;5.47;;;;;;;14.41;67.24;100282.19;5075691;28;20618;-65
2022/04/13 02:40:44;;;;;;;11.13;5.67;;;;;;;14.03;68.72;100281.22;5072683;28;20763;-65
2022/04/13 02:43:12;;;;;;;9.47;5.27;;;;;;;14.32;68.60;100282.22;5075686;28;20211;-65
2022/04/13 02:45:41;;;;;;;10.47;5.00;;;;;;;14.36;68.70;100288.00;5075688;28;20298;-65
2022/04/13 02:48:09;;;;;;;10.07;5.27;;;;;;;14.29;68.23;100287.88;5077220;28;20218;-65
2022/04/13 02:50:37;;;;;;;11.70;5.47;;;;;;;14.36;68.08;100282.66;5075166;28;20211;-65
2022/04/13 02:53:04;;;;;;;13.30;5.50;;;;;;;14.30;67.75;100284.22;5076614;28;20468;-65
2022/04/13 02:55:32;;;;;;;11.33;5.07;;;;;;;14.09;68.77;100286.66;5075888;28;20210;-65
2022/04/13 02:58:00;;;;;;;9.23;5.50;;;;;;;13.96;69.37;100286.41;5075819;28;20231;-65
2022/04/13 03:00:30;;;;;;;12.70;5.43;;;;;;;14.22;68.12;100283.44;5075156;28;20206;-65
2022/04/13 03:02:59;;;;;;;9.93;5.27;;;;;;;14.02;69.12;100292.88;5076099;28;20226;-65
2022/04/13 03:05:28;;;;;;;8.10;5.40;;;;;;;14.29;67.90;100287.06;5077023;28;20202;-64
2022/04/13 03:07:55;;;;;;;10.13;4.80;;;;;;;14.33;67.19;100288.38;5075992;28;20216;-64
2022/04/13 03:10:23;;;;;;;12.10;5.63;;;;;;;14.36;67.30;100293.34;5079482;28;20621;-65
2022/04/13 03:12:51;;;;;;;8.27;4.67;;;;;;;14.36;67.32;100293.34;5073716;28;20733;-64
2022/04/13 03:15:22;;;;;;;10.37;5.30;;;;;;;14.32;67.55;100297.38;5077629;28;20327;-64
2022/04/13 03:17:50;;;;;;;9.83;5.10;;;;;;;14.27;67.48;100291.72;5078417;28;20296;-65
2022/04/13 03:20:20;;;;;;;13.70;5.37;;;;;;;13.78;69.68;100293.81;5079159;28;20216;-65
2022/04/13 03:22:50;;;;;;;9.73;5.43;;;;;;;13.66;69.89;100280.03;5076537;28;20232;-65
2022/04/13 03:25:20;;;;;;;12.57;5.40;;;;;;;13.42;70.64;100293.44;5075901;28;20206;-67
2022/04/13 03:27:48;;;;;;;12.83;5.53;;;;;;;13.52;70.20;100294.09;5077595;28;20206;-65
2022/04/13 03:30:16;;;;;;;11.97;5.83;;;;;;;13.51;70.73;100290.59;5076562;28;20214;-65
2022/04/13 03:32:44;;;;;;;11.87;5.40;;;;;;;13.52;69.70;100294.09;5077702;28;20220;-65
2022/04/13 03:35:12;;;;;;;11.57;5.40;;;;;;;13.65;70.83;100293.53;5080748;28;21838;-65
2022/04/13 03:37:43;;;;;;;10.57;5.70;;;;;;;13.68;70.64;100294.03;5082487;28;20230;-65
2022/04/13 03:40:12;;;;;;;9.20;5.40;;;;;;;13.81;70.06;100285.47;5080845;28;20636;-65
2022/04/13 03:42:41;;;;;;;12.33;6.17;;;;;;;13.97;68.50;100289.91;5075887;28;20572;-65
2022/04/13 03:45:11;;;;;;;13.10;6.17;;;;;;;14.04;68.17;100294.38;5079736;28;20213;-65
2022/04/13 03:47:39;;;;;;;9.97;5.83;;;;;;;14.02;68.08;100285.72;5082004;28;20240;-65
2022/04/13 03:50:08;;;;;;;12.77;6.53;;;;;;;13.78;69.50;100284.00;5078484;28;20299;-65
2022/04/13 03:52:36;;;;;;;13.00;6.10;;;;;;;13.98;68.29;100289.75;5082676;28;20296;-65
2022/04/13 03:55:14;;;;;;;10.07;5.70;;;;;;;13.98;67.91;100283.59;5078470;28;20308;-66
2022/04/13 03:57:41;;;;;;;18.53;6.23;;;;;;;14.02;67.88;100287.53;5078088;28;20218;-65
2022/04/13 04:00:13;;;;;;;11.77;5.70;;;;;;;14.00;67.62;100282.38;5077654;28;20260;-65
2022/04/13 04:02:41;;;;;;;14.20;5.87;;;;;;;14.00;67.41;100281.53;5077138;28;20296;-66
2022/04/13 04:05:10;;;;;;;11.83;5.80;;;;;;;13.95;67.64;100284.75;5079900;28;20209;-66
2022/04/13 04:07:38;;;;;;;12.13;5.37;;;;;;;13.92;67.72;100277.09;5076748;28;20224;-64
2022/04/13 04:10:07;;;;;;;8.63;5.33;;;;;;;13.79;68.25;100277.66;5076272;28;20844;-67
2022/04/13 04:12:41;;;;;;;8.77;5.90;;;;;;;13.86;68.20;100286.63;5075952;28;20650;-65
2022/04/13 04:15:11;;;;;;;12.13;5.67;;;;;;;13.86;68.06;100289.28;5074634;28;20660;-65
2022/04/13 04:17:39;;;;;;;8.93;5.70;;;;;;;13.84;68.00;100280.63;5077853;28;21528;-65
2022/04/13 04:20:09;;;;;;;10.60;5.50;;;;;;;13.82;68.11;100285.28;5075723;28;20247;-65
2022/04/13 04:22:37;;;;;;;10.53;5.67;;;;;;;13.83;67.65;100286.13;5080666;28;20258;-65
2022/04/13 04:25:09;;;;;;;8.90;5.30;;;;;;;13.82;67.61;100289.78;5077769;28;20251;-66
2022/04/13 04:27:36;;;;;;;10.27;5.73;;;;;;;13.81;67.92;100294.28;5075927;28;20212;-65
2022/04/13 04:30:07;;;;;;;13.53;5.63;;;;;;;13.81;67.91;100296.97;5077386;28;20205;-66
2022/04/13 04:32:35;;;;;;;12.00;6.37;;;;;;;13.69;68.38;100301.03;5080024;28;20205;-65
2022/04/13 04:35:05;;;;;;;10.23;6.03;;;;;;;13.54;69.49;100302.75;5079133;28;20681;-65
2022/04/13 04:37:32;;;;;;;13.80;6.17;;;;;;;13.55;69.39;100305.22;5079125;28;20254;-65
2022/04/13 04:40:00;;;;;;;12.43;6.73;;;;;;;13.64;68.87;100314.00;5075970;28;20343;-65
2022/04/13 04:42:28;;;;;;;14.43;6.73;;;;;;;13.60;69.02;100312.72;5077370;28;20295;-65
2022/04/13 04:44:57;;;;;;;17.20;6.97;;;;;;;13.60;68.82;100318.03;5076579;28;20217;-65
2022/04/13 04:47:27;;;;;;;11.03;5.47;;;;;;;13.63;68.59;100314.22;5076440;28;20203;-66
2022/04/13 04:49:54;;;;;;;10.67;5.40;;;;;;;13.61;68.41;100303.72;5078516;28;20241;-65
2022/04/13 04:52:22;;;;;;;12.87;5.77;;;;;;;13.44;69.46;100320.75;5078328;28;20213;-66
2022/04/13 04:54:50;;;;;;;11.73;5.90;;;;;;;13.34;70.34;100320.94;5075787;28;20211;-65
2022/04/13 04:57:17;;;;;;;15.83;7.17;;;;;;;13.19;70.68;100312.78;5076018;28;20216;-66
2022/04/13 04:59:45;;;;;;;14.03;6.70;;;;;;;13.39;69.66;100321.25;5077486;28;20227;-66
2022/04/13 05:02:13;;;;;;;20.57;6.73;;;;;;;13.48;69.58;100330.88;5077892;28;20337;-66
2022/04/13 05:04:42;;;;;;;17.07;7.30;;;;;;;13.36;70.22;100331.41;5077363;28;20217;-66
2022/04/13 05:07:09;;;;;;;18.97;5.77;;;;;;;13.33;70.49;100327.25;5078743;28;20215;-66
2022/04/13 05:09:39;;;;;;;12.90;5.47;;;;;;;13.44;69.91;100323.41;5076540;28;20206;-64
2022/04/13 05:12:10;;;;;;;14.57;6.23;;;;;;;13.54;68.97;100329.38;5073864;28;20262;-67
2022/04/13 05:14:38;;;;;;;10.87;6.20;;;;;;;13.55;68.75;100329.19;5078035;28;20297;-66
2022/04/13 05:17:05;;;;;;;14.30;6.47;;;;;;;13.62;68.32;100326.69;5078737;28;20303;-66
2022/04/13 05:19:34;;;;;;;14.10;5.70;;;;;;;13.64;68.06;100330.00;5072073;28;20303;-66
2022/04/13 05:22:03;;;;;;;18.87;7.80;;;;;;;13.67;68.34;100329.66;5077221;28;20208;-66
2022/04/13 05:24:31;;;;;;;20.53;10.40;;;;;;;13.69;68.46;100327.66;5077094;28;20682;-66
2022/04/13 05:26:59;;;;;;;29.80;12.73;;;;;;;13.41;70.15;100323.75;5079588;28;20234;-66
2022/04/13 05:29:27;;;;;;;27.47;14.77;;;;;;;13.49;69.79;100331.72;5076481;28;20199;-66
2022/04/13 05:31:54;;;;;;;30.70;12.93;;;;;;;13.40;70.43;100328.22;5079657;28;20206;-66
2022/04/13 05:34:22;;;;;;;27.60;12.37;;;;;;;13.56;69.30;100338.00;5080842;28;20654;-66
2022/04/13 05:36:54;;;;;;;24.63;11.80;;;;;;;13.65;68.98;100350.31;5080489;28;20241;-66
2022/04/13 05:39:25;;;;;;;22.57;11.13;;;;;;;13.65;68.64;100355.66;5077617;28;20270;-66
2022/04/13 05:41:53;;;;;;;25.73;11.53;;;;;;;13.65;69.01;100358.31;5074470;28;20205;-66
2022/04/13 05:44:20;;;;;;;27.97;11.43;;;;;;;13.65;69.31;100360.13;5075704;28;20298;-65
2022/04/13 05:46:48;;;;;;;24.67;10.13;;;;;;;13.66;69.12;100362.63;5076226;28;20214;-65
2022/04/13 05:49:16;;;;;;;21.77;8.90;;;;;;;13.76;68.63;100365.94;5075567;28;20219;-65
2022/04/13 05:51:44;;;;;;;22.73;8.50;;;;;;;13.77;68.95;100372.94;5078617;28;20239;-65
2022/04/13 05:54:11;;;;;;;18.33;6.90;;;;;;;13.80;68.60;100367.28;5073139;28;20725;-65
2022/04/13 05:56:40;;;;;;;23.80;6.87;;;;;;;13.82;68.50;100372.41;5076580;28;20212;-65
2022/04/13 05:59:08;;;;;;;15.33;6.77;;;;;;;13.81;68.41;100379.56;5074212;28;20229;-65
2022/04/13 06:01:36;;;;;;;20.83;8.40;;;;;;;13.83;68.51;100382.91;5079774;28;20224;-65
2022/04/13 06:04:04;;;;;;;15.70;7.13;;;;;;;13.87;68.23;100386.91;5073943;28;20207;-65
2022/04/13 06:06:32;;;;;;;16.80;6.30;;;;;;;13.92;67.81;100389.03;5077908;28;20235;-66
2022/04/13 06:08:59;;;;;;;11.70;6.23;;;;;;;13.94;67.52;100397.72;5077173;28;20662;-66
2022/04/13 06:11:27;;;;;;;10.67;6.40;;;;;;;13.94;67.05;100397.72;5077652;28;20741;-66
2022/04/13 06:13:56;;;;;;;9.63;5.97;;;;;;;13.96;67.59;100401.03;5076096;28;20214;-65
2022/04/13 06:16:24;;;;;;;9.27;5.60;;;;;;;14.01;66.47;100405.84;5075253;28;20217;-65
2022/04/13 06:18:51;;;;;;;12.77;5.97;;;;;;;14.07;66.41;100402.50;5075001;28;20210;-65
2022/04/13 06:21:19;;;;;;;9.63;5.77;;;;;;;14.08;66.63;100398.81;5078010;28;20215;-65
2022/04/13 06:23:47;;;;;;;14.93;6.20;;;;;;;14.17;65.62;100405.78;5078722;28;20682;-65
2022/04/13 06:26:15;;;;;;;9.40;5.87;;;;;;;14.20;65.64;100395.63;5076385;28;20744;-65
2022/04/13 06:28:43;;;;;;;10.10;6.25;;;;;;;14.28;65.75;100408.06;5076147;28;20447;-66
2022/04/13 06:31:12;;;;;;;13.47;6.43;;;;;;;14.34;65.70;100406.56;5073535;28;20234;-66
2022/04/13 06:33:40;;;;;;;14.00;6.30;;;;;;;14.36;65.34;100416.03;5075682;28;20677;-66
2022/04/13 06:36:08;;;;;;;10.47;5.97;;;;;;;14.47;65.52;100410.34;5078865;28;20240;-66
2022/04/13 06:38:40;;;;;;;14.87;6.77;;;;;;;14.46;65.73;100407.84;5071224;28;20213;-66
2022/04/13 06:41:08;;;;;;;11.70;6.87;;;;;;;14.58;65.19;100404.63;5072885;28;20727;-66
2022/04/13 06:43:37;;;;;;;14.00;7.97;;;;;;;14.56;65.73;100400.47;5075797;28;20512;-67
2022/04/13 06:46:05;;;;;;;12.50;6.27;;;;;;;14.67;65.41;100408.91;5080071;28;20203;-67
2022/04/13 06:48:34;;;;;;;13.70;6.27;;;;;;;14.78;64.67;100410.34;5080425;28;20277;-67
2022/04/13 06:51:03;;;;;;;12.57;6.60;;;;;;;14.81;64.46;100414.50;5076503;28;20674;-67
2022/04/13 06:53:31;;;;;;;15.87;6.93;;;;;;;14.99;63.89;100412.38;5069973;28;20504;-66
2022/04/13 06:55:58;;;;;;;13.60;6.77;;;;;;;15.07;64.08;100409.63;5075678;28;20309;-67
2022/04/13 06:58:26;;;;;;;14.30;8.27;;;;;;;15.12;63.95;100412.63;5079563;28;20637;-67
2022/04/13 07:01:06;;;;;;;16.73;7.43;;;;;;;15.22;63.61;100415.84;5077167;28;20679;-66
2022/04/13 07:03:35;;;;;;;30.23;7.03;;;;;;;15.31;63.09;100414.78;5074040;28;20309;-66
2022/04/13 07:06:04;;;;;;;20.27;7.17;;;;;;;15.33;62.70;100431.47;5078723;28;20206;-66
2022/04/13 07:08:52;;;;;;;13.77;7.20;;;;;;;15.28;62.20;100433.84;5074641;28;20225;-66
2022/04/13 07:11:19;;;;;;;16.27;7.23;;;;;;;15.34;62.03;100427.78;5076030;28;20652;-66
2022/04/13 07:13:47;;;;;;;16.20;7.33;;;;;;;15.46;61.61;100435.38;5073197;28;20257;-65
2022/04/13 07:16:15;;;;;;;11.43;6.60;;;;;;;15.54;61.10;100438.00;5074134;28;20305;-65
2022/04/13 07:18:44;;;;;;;11.10;5.90;;;;;;;15.50;61.29;100434.00;5075176;28;20211;-65
2022/04/13 07:21:12;;;;;;;13.60;6.47;;;;;;;15.59;60.44;100440.97;5080580;28;20607;-65
2022/04/13 07:23:39;;;;;;;14.60;6.97;;;;;;;15.67;60.71;100447.06;5074943;28;20294;-65
2022/04/13 07:26:07;;;;;;;11.90;7.43;;;;;;;15.68;61.07;100447.88;5074969;28;20670;-65
2022/04/13 07:28:35;;;;;;;11.90;6.97;;;;;;;15.73;60.29;100458.88;5072507;28;20668;-66
2022/04/13 07:31:02;;;;;;;10.73;6.17;;;;;;;15.65;60.35;100466.97;5072566;28;20217;-66
2022/04/13 07:33:30;;;;;;;9.90;6.17;;;;;;;15.69;60.00;100468.25;5069572;28;20211;-66
2022/04/13 07:35:59;;;;;;;8.73;5.70;;;;;;;15.77;58.57;100471.69;5067968;28;20322;-65
2022/04/13 07:38:27;;;;;;;8.70;5.63;;;;;;;15.68;58.98;100474.63;5069546;28;20234;-65
2022/04/13 07:40:58;;;;;;;8.33;5.87;;;;;;;15.73;58.61;100474.94;5075235;28;20879;-66
2022/04/13 07:43:25;;;;;;;9.70;5.73;;;;;;;15.91;58.74;100488.78;5076015;28;20203;-66
2022/04/13 07:45:53;;;;;;;12.63;6.17;;;;;;;16.17;58.33;100493.69;5076995;28;20211;-66
2022/04/13 07:48:22;;;;;;;12.30;5.53;;;;;;;16.30;57.61;100498.41;5075168;28;20225;-66
2022/04/13 07:50:49;;;;;;;11.43;5.73;;;;;;;16.49;57.17;100497.84;5075029;28;20206;-66
2022/04/13 07:53:18;;;;;;;11.93;6.10;;;;;;;16.58;57.15;100496.72;5072295;28;20573;-67
2022/04/13 07:55:50;;;;;;;9.90;5.57;;;;;;;16.64;57.30;100495.19;5074021;28;20217;-65
2022/04/13 07:58:20;;;;;;;13.70;5.13;;;;;;;16.68;56.57;100497.31;5072977;28;20207;-65
2022/04/13 08:00:48;;;;;;;9.63;4.87;;;;;;;16.64;56.78;100506.72;5073777;28;20651;-64
2022/04/13 08:03:16;;;;;;;10.90;5.33;;;;;;;16.52;57.03;100516.22;5068782;28;20218;-65
2022/04/13 08:06:02;;;;;;;8.03;5.17;;;;;;;16.42;57.92;100507.63;5072139;28;20229;-65
2022/04/13 08:08:32;;;;;;;12.73;6.07;;;;;;;16.45;58.31;100515.28;5074382;28;20318;-66
2022/04/13 08:11:00;;;;;;;11.40;5.87;;;;;;;16.48;57.29;100514.91;5074249;28;20221;-65
2022/04/13 08:13:36;;;;;;;11.37;5.67;;;;;;;16.50;57.29;100516.41;5074345;28;20672;-65
2022/04/13 08:16:15;;;;;;;11.33;6.67;;;;;;;16.50;58.08;100520.91;5079760;28;20211;-64
2022/04/13 08:18:44;;;;;;;11.60;5.80;;;;;;;16.48;56.98;100515.75;5076375;28;20218;-64
2022/04/13 08:21:12;;;;;;;9.53;6.03;;;;;;;16.43;58.96;100511.97;5076851;28;20758;-65
2022/04/13 08:23:41;;;;;;;13.77;6.57;;;;;;;16.42;58.55;100515.66;5072580;28;20303;-65
2022/04/13 08:26:09;;;;;;;10.23;6.00;;;;;;;16.56;57.30;100506.78;5077989;28;20215;-64
2022/04/13 08:28:36;;;;;;;8.27;5.90;;;;;;;16.70;57.82;100510.50;5077909;28;20309;-65
2022/04/13 08:31:04;;;;;;;10.60;5.47;;;;;;;16.81;56.98;100518.88;5077400;28;20630;-65
2022/04/13 08:33:42;;;;;;;9.50;6.23;;;;;;;16.95;55.69;100519.06;5071517;28;20214;-66
2022/04/13 08:36:10;;;;;;;9.77;5.40;;;;;;;16.94;58.33;100518.22;5075448;28;20206;-66
2022/04/13 08:38:37;;;;;;;8.97;4.87;;;;;;;17.00;56.16;100525.50;5077965;28;20206;-65
2022/04/13 08:41:14;;;;;;;9.63;5.63;;;;;;;17.08;55.62;100519.19;5080833;28;20235;-66
2022/04/13 08:43:48;;;;;;;17.10;5.80;;;;;;;17.23;56.42;100506.59;5074758;28;20206;-66
2022/04/13 08:46:23;;;;;;;15.10;5.40;;;;;;;17.39;55.62;100517.06;5079601;28;20200;-65
2022/04/13 08:48:52;;;;;;;8.70;5.03;;;;;;;17.60;55.06;100519.72;5079873;28;20675;-65
2022/04/13 08:51:40;;;;;;;8.37;5.03;;;;;;;17.86;54.30;100515.63;5074794;28;20631;-66
2022/04/13 08:54:14;;;;;;;9.43;5.67;;;;;;;18.03;54.72;100515.16;5073886;28;20298;-65
2022/04/13 08:56:47;;;;;;;9.80;5.27;;;;;;;18.24;54.13;100513.44;5082444;28;20209;-65
2022/04/13 08:59:43;;;;;;;8.30;5.33;;;;;;;18.42;52.91;100508.41;5075744;28;20221;-66
2022/04/13 09:02:23;;;;;;;12.07;4.97;;;;;;;18.59;53.07;100508.94;5078614;28;20230;-65
2022/04/13 09:04:56;;;;;;;10.87;4.93;;;;;;;18.82;51.99;100504.09;5073732;28;20217;-65
2022/04/13 09:07:29;;;;;;;8.07;4.63;;;;;;;18.97;51.07;100507.44;5081449;28;20214;-65
2022/04/13 09:10:01;;;;;;;13.60;5.57;;;;;;;19.20;50.65;100498.19;5073584;28;20630;-65
2022/04/13 09:12:33;;;;;;;13.33;5.90;;;;;;;19.39;50.75;100502.78;5078395;28;20239;-65
2022/04/13 09:15:02;;;;;;;12.63;5.03;;;;;;;19.64;48.36;100498.50;5076213;28;20211;-65
2022/04/13 09:17:30;;;;;;;17.93;5.50;;;;;;;19.77;49.04;100509.28;5074271;28;20203;-66
2022/04/13 09:19:58;;;;;;;13.97;4.97;;;;;;;19.92;48.82;100507.19;5082012;28;20676;-65
2022/04/13 09:22:27;;;;;;;11.43;4.87;;;;;;;20.03;48.13;100496.84;5081903;28;20246;-65
2022/04/13 09:24:56;;;;;;;14.40;5.00;;;;;;;19.99;49.01;100506.34;5072346;28;20434;-67
2022/04/13 09:27:25;;;;;;;11.33;4.70;;;;;;;20.07;48.97;100504.25;5076291;28;20290;-64
2022/04/13 09:29:54;;;;;;;11.17;5.17;;;;;;;20.38;48.00;100505.50;5073634;28;20225;-68
2022/04/13 09:32:21;;;;;;;10.43;4.70;;;;;;;20.59;47.64;100513.28;5072280;28;20298;-68
2022/04/13 09:34:49;;;;;;;17.07;5.20;;;;;;;20.88;47.09;100507.38;5078267;28;20357;-65
2022/04/13 09:37:17;;;;;;;10.38;5.45;;;;;;;21.20;45.50;100508.28;5072521;28;20227;-67
2022/04/13 09:39:46;;;;;;;12.77;4.70;;;;;;;21.24;45.45;100514.91;5074055;28;20580;-66
2022/04/13 09:42:14;;;;;;;11.27;5.30;;;;;;;21.47;46.02;100508.09;5073177;28;20222;-66
2022/04/13 09:44:42;;;;;;;11.25;5.35;;;;;;;21.31;46.38;100506.75;5072819;28;20657;-66
2022/04/13 09:47:12;;;;;;;13.35;5.82;;;;;;;21.40;45.54;100500.88;5080638;28;20202;-65
2022/04/13 09:49:45;;;;;;;10.73;5.80;;;;;;;21.62;44.49;100508.63;5076235;28;20206;-67
2022/04/13 09:52:15;;;;;;;10.88;4.75;;;;;;;21.81;42.65;100504.13;5075363;28;20236;-65
2022/04/13 09:54:45;;;;;;;8.52;5.22;;;;;;;21.86;44.20;100499.72;5070277;28;20218;-66
2022/04/13 09:57:22;;;;;;;16.17;5.53;;;;;;;22.26;44.27;100496.66;5078397;28;20230;-66
2022/04/13 09:59:56;;;;;;;11.10;5.53;;;;;;;22.76;43.16;100502.78;5074968;28;20209;-66
2022/04/13 10:02:36;;;;;;;13.65;5.55;;;;;;;23.43;42.14;100488.09;5078103;28;20308;-66
2022/04/13 10:05:06;;;;;;;11.20;5.13;;;;;;;23.77;40.73;100496.53;5081414;28;20784;-66
2022/04/13 10:07:33;;;;;;;19.55;5.55;;;;;;;25.94;36.18;100491.19;5075251;28;20207;-65
2022/04/13 10:10:01;;;;;;;13.68;5.20;;;;;;;26.26;35.98;100484.06;5068428;28;20215;-66
2022/04/13 10:12:29;;;;;;;10.68;5.53;;;;;;;28.04;32.57;100481.31;5074684;28;20361;-65
2022/04/13 10:15:07;;;;;;;11.15;5.47;;;;;;;27.92;32.11;100480.69;5074714;28;20245;-65
2022/04/13 10:17:38;;;;;;;11.25;5.43;;;;;;;27.32;33.68;100476.34;5071313;28;20973;-65
2022/04/13 10:20:07;;;;;;;10.18;5.03;;;;;;;24.80;37.87;100488.59;5075444;28;20210;-65
2022/04/13 10:22:35;;;;;;;10.52;4.45;;;;;;;25.87;36.36;100480.47;5068752;28;20223;-64
2022/04/13 10:25:17;;;;;;;8.50;5.13;;;;;;;26.66;34.47;100491.91;5075381;28;20635;-65
2022/04/13 10:27:54;;;;;;;8.77;4.85;;;;;;;27.26;33.64;100489.13;5072661;28;20295;-66
2022/04/13 10:30:28;;;;;;;7.20;3.80;;;;;;;28.20;30.96;100483.06;5069990;28;20233;-66
2022/04/13 10:33:02;;;;;;;8.93;3.88;;;;;;;27.23;31.44;100476.00;5074568;28;20224;-66
2022/04/13 10:35:31;;;;;;;6.32;3.05;;;;;;;27.06;30.97;100479.91;5074670;28;20234;-66
2022/04/13 10:37:59;;;;;;;13.73;4.10;;;;;;;25.96;33.75;100483.59;5075029;28;20226;-66
2022/04/13 10:40:31;;;;;;;7.93;4.10;;;;;;;25.11;35.83;100481.88;5076860;28;20215;-66
2022/04/13 10:43:03;;;;;;;8.48;3.70;;;;;;;25.74;33.83;100483.53;5071365;28;20679;-65
2022/04/13 10:45:33;;;;;;;6.75;3.65;;;;;;;25.94;33.77;100481.16;5078522;28;20213;-66
2022/04/13 10:48:11;;;;;;;5.72;3.30;;;;;;;25.65;34.08;100483.13;5077304;28;20228;-65
2022/04/13 10:50:48;;;;;;;10.55;3.90;;;;;;;26.10;33.11;100476.75;5074441;28;20257;-66
2022/04/13 10:53:21;;;;;;;12.77;4.45;;;;;;;27.08;32.75;100466.88;5280686;22;20401;-64
2022/04/13 10:55:58;;;;;;;9.35;4.43;;;;;;;27.86;30.88;100463.47;5043480;28;20684;-69
2022/04/13 10:58:41;;;;;;;10.18;3.40;;;;;;;28.40;29.53;100457.81;5063213;28;20225;-65
2022/04/13 11:01:13;;;;;;;8.55;3.88;;;;;;;27.47;30.38;100456.59;5058885;28;20215;-65
2022/04/13 11:03:43;;;;;;;11.38;4.28;;;;;;;26.68;32.51;100467.19;5061657;28;20338;-65
2022/04/13 11:06:12;;;;;;;11.25;3.75;;;;;;;26.64;32.63;100457.91;5059363;28;20294;-65
2022/04/13 11:08:46;;;;;;;7.35;3.65;;;;;;;26.99;31.51;100455.63;5061073;28;20199;-64
2022/04/13 11:11:31;;;;;;;7.72;3.47;;;;;;;27.25;31.37;100457.53;5060883;28;20230;-65
2022/04/13 11:13:59;;;;;;;10.73;4.05;;;;;;;28.30;28.83;100455.06;5056278;28;20688;-64
2022/04/13 11:16:28;;;;;;;14.38;4.70;;;;;;;29.84;26.58;100456.72;5057140;28;20678;-65
2022/04/13 11:19:20;;;;;;;6.68;4.10;;;;;;;27.20;29.31;100462.91;5059728;28;20211;-70
2022/04/13 11:22:14;;;;;;;10.13;4.15;;;;;;;27.81;28.61;100463.44;5063421;28;20276;-65
2022/04/13 11:24:54;;;;;;;10.73;4.40;;;;;;;29.89;26.99;100461.38;5061755;28;20210;-63
2022/04/13 11:27:22;;;;;;;11.05;4.03;;;;;;;31.40;24.34;100456.38;5060543;28;20297;-65
2022/04/13 11:30:00;;;;;;;9.70;4.38;;;;;;;32.19;24.14;100452.38;5055121;28;20207;-65
2022/04/13 11:32:31;;;;;;;7.20;3.75;;;;;;;31.74;24.96;100446.22;5057786;28;20298;-67
2022/04/13 11:35:01;;;;;;;10.85;4.22;;;;;;;30.61;25.40;100446.41;5056539;28;20208;-66
2022/04/13 11:37:44;;;;;;;6.70;3.60;;;;;;;30.83;25.92;100451.50;5061451;28;20465;-66